Terminal Aerodrome Forecast
Issued by NWS Greer, SC

Home | Current Version | Previous Version | Text Only | Print | Product List | Glossary On
Versions: 1 2 3 4 5 6 7 8 9 10 11 12 13 14 15 16 17 18 19 20 21 22 23 24 25 26 27 28
000
FTUS42 KGSP 262103 AAC
TAFAVL
TAF AMD
KAVL 262103Z 2621/2718 14004KT P6SM -RA SCT060 OVC080
      TEMPO 2621/2623 4SM -RA BR SCT025 BKN060
     FM262300 35007KT 5SM -SHRA BR OVC012
     FM270400 34009KT 6SM BR OVC005
     FM271400 31008KT P6SM BKN040=

USA.gov is the U.S. government's official web portal to all federal, state and local government web resources and services.